Adams Mills, Ohio
Current Conditions -  °F | °C
As of 3:53 AM on Friday 19 Dec 2014 (Local Time) from KZZV Reporting Station
Overcast Overcast  
Wind Chill: 27°   Ceiling: 2300
Heat Index: 27°   Visibility: 8mi
Dew Point: 22°   Wind: 3mph
Humidity: 81%   Direction: 300°WNW
Pressure: 30.21"   Gusts: NA
Location:  40.1482°N, 82.0354°W
Report Text: KZZV 190853Z AUTO 30003KT 8SM OVC023 M03/M06 A3021 RMK AO2 SLP239 T10281056 51004
Loading
Personal Weather Stations






























Interactive Weather Map New forecast layout! Learn more

10-Day Weather Forecast

Advertisements
Track Severe Weather on mobile